Time;durP1;ratioP1;P1;durP2;ratioP2;P2;SDS_P1;SDS_P2;PMS_P1;PMS_P2;Temp;Humidity;BMP_temperature;BMP_pressure;BME280_temperature;BME280_humidity;BME280_pressure;Samples;Min_cycle;Max_cycle;Signal;HPM_P1;HPM_P2
2020/12/12 00:00:05;;;;;;;8.20;4.60;;;;;;;6.60;67.83;97691.63;3889427;23;20061;-83
2020/12/12 00:01:39;;;;;;;8.65;4.60;;;;;;;6.55;67.87;97686.84;3883740;22;20012;-82
2020/12/12 00:03:10;;;;;;;8.73;3.95;;;;;;;6.51;67.90;97690.03;3887689;23;20020;-82
2020/12/12 00:04:42;;;;;;;9.70;4.28;;;;;;;6.52;67.96;97691.66;3879507;22;20020;-81
2020/12/12 00:06:20;;;;;;;7.85;4.13;;;;;;;6.59;67.64;97694.44;3882110;23;20027;-83
2020/12/12 00:07:52;;;;;;;7.75;4.05;;;;;;;6.62;67.78;97696.75;3880505;23;20016;-83
2020/12/12 00:09:26;;;;;;;7.38;3.80;;;;;;;6.60;67.70;97691.63;3883119;23;20071;-81
2020/12/12 00:11:01;;;;;;;8.77;4.10;;;;;;;6.56;67.58;97683.16;3867066;22;20024;-82
2020/12/12 00:12:33;;;;;;;7.82;3.80;;;;;;;6.59;67.43;97674.03;3881716;23;20020;-83
2020/12/12 00:14:06;;;;;;;7.88;3.58;;;;;;;6.66;67.19;97682.94;3877888;23;20115;-83
2020/12/12 00:15:38;;;;;;;8.63;4.35;;;;;;;6.72;67.27;97679.56;3882777;23;20055;-81
2020/12/12 00:17:10;;;;;;;7.80;3.78;;;;;;;6.72;67.42;97676.09;3877329;22;20465;-81
2020/12/12 00:18:41;;;;;;;9.50;4.90;;;;;;;6.57;67.33;97684.00;3882983;23;20107;-82
2020/12/12 00:20:13;;;;;;;9.38;5.43;;;;;;;6.58;67.51;97676.84;3880343;23;20092;-83
2020/12/12 00:21:50;;;;;;;11.00;5.93;;;;;;;6.55;67.59;97680.69;3875225;22;20103;-82
2020/12/12 00:23:20;;;;;;;10.90;5.38;;;;;;;6.60;67.61;97674.84;3885305;23;20103;-83
2020/12/12 00:24:54;;;;;;;12.73;7.25;;;;;;;6.52;67.75;97668.59;3880046;23;20028;-84
2020/12/12 00:26:28;;;;;;;9.95;4.90;;;;;;;6.56;67.68;97672.53;3885955;23;20047;-83
2020/12/12 00:28:00;;;;;;;10.13;5.03;;;;;;;6.60;67.80;97681.00;3881323;22;20043;-84
2020/12/12 00:29:31;;;;;;;7.60;4.18;;;;;;;6.60;67.58;97672.19;3888764;23;20046;-84
2020/12/12 00:31:02;;;;;;;7.13;3.55;;;;;;;6.62;67.61;97667.53;3884249;23;20028;-82
2020/12/12 00:32:34;;;;;;;7.85;4.63;;;;;;;6.62;67.55;97663.03;3886875;23;20030;-84
2020/12/12 00:34:06;;;;;;;9.20;4.90;;;;;;;6.55;67.58;97662.94;3882389;22;20081;-82
2020/12/12 00:35:38;;;;;;;8.27;4.18;;;;;;;6.62;67.60;97665.69;3887965;22;20054;-82
2020/12/12 00:37:10;;;;;;;8.07;4.82;;;;;;;6.63;67.42;97675.31;3878739;23;20020;-81
2020/12/12 00:38:44;;;;;;;8.95;4.35;;;;;;;6.60;67.51;97672.19;3881280;23;20027;-82
2020/12/12 00:40:15;;;;;;;7.47;4.30;;;;;;;6.56;67.68;97677.03;3880256;22;20342;-82
2020/12/12 00:41:47;;;;;;;9.48;4.72;;;;;;;6.58;67.64;97669.72;3883986;23;20027;-82
2020/12/12 00:43:18;;;;;;;8.45;4.57;;;;;;;6.55;67.37;97678.03;3879234;23;20016;-83
2020/12/12 00:44:49;;;;;;;7.50;4.10;;;;;;;6.62;67.49;97668.34;3882733;23;20012;-83
2020/12/12 00:46:21;;;;;;;9.50;5.32;;;;;;;6.58;67.70;97674.19;3881607;22;20044;-83
2020/12/12 00:47:52;;;;;;;9.05;5.20;;;;;;;6.60;67.53;97672.19;3889326;22;20077;-84
2020/12/12 00:49:24;;;;;;;7.90;4.40;;;;;;;6.55;67.66;97678.88;3886757;22;20012;-82
2020/12/12 00:50:58;;;;;;;8.85;4.85;;;;;;;6.52;67.72;97679.22;3891914;22;20027;-83
2020/12/12 00:52:31;;;;;;;7.68;3.88;;;;;;;6.59;67.63;97679.34;3888095;22;20024;-82
2020/12/12 00:54:06;;;;;;;7.82;4.15;;;;;;;6.61;67.54;97671.19;3886987;22;20024;-82
2020/12/12 00:55:38;;;;;;;10.68;5.22;;;;;;;6.52;67.77;97670.41;3879613;23;20028;-82
2020/12/12 00:57:10;;;;;;;9.20;4.90;;;;;;;6.56;67.91;97682.34;3884597;23;20024;-81
2020/12/12 00:58:42;;;;;;;9.23;4.47;;;;;;;6.56;67.90;97679.69;3878878;23;20028;-84
2020/12/12 01:00:13;;;;;;;6.78;3.35;;;;;;;6.59;67.91;97676.69;3882903;23;20031;-82
2020/12/12 01:01:45;;;;;;;7.70;3.47;;;;;;;6.63;67.59;97677.97;3878943;22;20024;-83
2020/12/12 01:03:17;;;;;;;9.65;4.43;;;;;;;6.62;67.59;97681.63;3882796;23;20458;-82
2020/12/12 01:04:47;;;;;;;8.13;4.20;;;;;;;6.63;67.58;97677.97;3877165;23;20042;-82
2020/12/12 01:06:19;;;;;;;8.57;4.43;;;;;;;6.65;67.53;97680.47;3881980;23;20024;-82
2020/12/12 01:07:51;;;;;;;7.25;3.53;;;;;;;6.65;67.60;97691.91;3874248;22;20024;-81
2020/12/12 01:09:23;;;;;;;6.20;2.88;;;;;;;6.65;67.56;97683.13;3881860;23;20317;-82
2020/12/12 01:10:54;;;;;;;5.07;2.70;;;;;;;6.71;67.27;97679.75;3878611;22;20389;-82
2020/12/12 01:12:25;;;;;;;7.47;4.05;;;;;;;6.75;67.27;97685.53;3881265;23;20024;-81
2020/12/12 01:13:57;;;;;;;7.38;3.63;;;;;;;6.72;67.31;97692.03;3879074;22;20032;-84
2020/12/12 01:15:29;;;;;;;6.85;3.85;;;;;;;6.75;67.30;97681.06;3882384;23;20016;-81
2020/12/12 01:17:01;;;;;;;6.55;3.13;;;;;;;6.76;67.12;97681.88;3878717;23;20024;-83
2020/12/12 01:18:32;;;;;;;7.60;3.70;;;;;;;6.77;67.01;97676.38;3882102;23;20032;-84
2020/12/12 01:20:04;;;;;;;7.85;3.53;;;;;;;6.79;66.94;97677.03;3876117;22;20024;-81
2020/12/12 01:21:36;;;;;;;6.03;3.22;;;;;;;6.83;67.03;97682.78;3882364;23;20099;-82
2020/12/12 01:23:08;;;;;;;8.15;4.03;;;;;;;6.84;66.86;97689.75;3877410;23;20473;-83
2020/12/12 01:24:39;;;;;;;7.50;3.53;;;;;;;6.85;66.90;97686.91;3882356;23;20028;-84
2020/12/12 01:26:11;;;;;;;9.27;4.15;;;;;;;6.85;67.02;97684.25;3878725;23;20416;-82
2020/12/12 01:27:42;;;;;;;6.93;3.65;;;;;;;6.85;67.08;97675.47;3878630;23;20016;-82
2020/12/12 01:29:13;;;;;;;8.77;4.18;;;;;;;6.84;66.90;97681.78;3875162;23;20016;-82
2020/12/12 01:30:44;;;;;;;6.90;3.95;;;;;;;6.84;67.05;97679.13;3879246;22;20027;-81
2020/12/12 01:32:15;;;;;;;7.03;3.58;;;;;;;6.86;67.09;97677.94;3886412;23;20020;-81
2020/12/12 01:33:47;;;;;;;6.15;3.35;;;;;;;6.85;66.92;97670.16;3881515;23;20031;-81
2020/12/12 01:35:18;;;;;;;7.93;4.13;;;;;;;6.81;67.20;97674.19;3885685;23;20031;-82
2020/12/12 01:36:50;;;;;;;7.30;3.95;;;;;;;6.86;67.09;97677.94;3881677;22;20020;-83
2020/12/12 01:38:22;;;;;;;7.18;3.65;;;;;;;6.86;67.23;97671.81;3886482;23;20051;-83
2020/12/12 01:39:56;;;;;;;7.28;3.45;;;;;;;6.86;67.14;97679.78;3885807;22;20039;-81
2020/12/12 01:41:27;;;;;;;8.68;4.38;;;;;;;6.84;67.21;97677.31;3890467;22;20032;-84
2020/12/12 01:42:58;;;;;;;8.38;4.43;;;;;;;6.81;67.30;97674.19;3887104;22;20062;-82
2020/12/12 01:44:30;;;;;;;9.13;5.32;;;;;;;6.77;67.50;97678.22;3891345;22;20028;-83
2020/12/12 01:46:01;;;;;;;7.72;4.22;;;;;;;6.74;67.64;97675.91;3889048;22;20042;-82
2020/12/12 01:47:32;;;;;;;9.27;3.95;;;;;;;6.72;67.73;97676.91;3891855;22;20004;-82
2020/12/12 01:49:04;;;;;;;7.68;4.00;;;;;;;6.69;67.78;97676.44;3887624;22;20038;-82
2020/12/12 01:50:35;;;;;;;7.80;4.40;;;;;;;6.69;67.82;97685.25;3892218;22;20083;-83
2020/12/12 01:52:09;;;;;;;7.40;4.43;;;;;;;6.69;67.77;97687.06;3887353;22;20019;-84
2020/12/12 01:53:42;;;;;;;8.95;5.03;;;;;;;6.62;68.00;97684.28;3891285;23;20077;-82
2020/12/12 01:55:15;;;;;;;8.70;4.45;;;;;;;6.63;68.07;97690.44;3885640;22;20060;-83
2020/12/12 01:56:50;;;;;;;8.73;4.50;;;;;;;6.62;68.10;97694.91;3891915;22;20012;-82
2020/12/12 01:58:21;;;;;;;9.60;4.15;;;;;;;6.61;68.35;97695.09;3885934;22;20457;-82
2020/12/12 01:59:54;;;;;;;9.63;4.70;;;;;;;6.63;68.18;97691.25;3884518;23;20120;-83
2020/12/12 02:01:27;;;;;;;7.78;4.50;;;;;;;6.68;68.33;97696.88;3879852;22;20024;-83
2020/12/12 02:02:59;;;;;;;7.68;3.72;;;;;;;6.70;68.29;97688.72;3882819;23;20023;-82
2020/12/12 02:04:32;;;;;;;6.75;3.25;;;;;;;6.75;68.07;97696.16;3879513;23;20027;-82
2020/12/12 02:06:03;;;;;;;8.00;3.40;;;;;;;6.77;68.19;97689.66;3883179;23;20020;-82
2020/12/12 02:07:35;;;;;;;6.97;3.65;;;;;;;6.79;68.00;97674.38;3879328;22;20091;-83
2020/12/12 02:09:07;;;;;;;9.02;4.07;;;;;;;6.83;68.09;97690.75;3882020;23;20042;-84
2020/12/12 02:10:41;;;;;;;7.22;3.58;;;;;;;6.84;68.09;97677.31;3877286;23;20072;-83
2020/12/12 02:12:14;;;;;;;5.90;2.97;;;;;;;6.80;68.42;97688.50;3882310;23;20599;-82
2020/12/12 02:13:47;;;;;;;8.43;4.20;;;;;;;6.78;68.37;97686.00;3876729;22;20024;-82
2020/12/12 02:15:18;;;;;;;7.00;3.17;;;;;;;6.80;68.69;97681.34;3881833;23;20461;-83
2020/12/12 02:16:55;;;;;;;5.93;3.17;;;;;;;6.75;68.60;97674.91;3875571;23;20016;-82
2020/12/12 02:18:26;;;;;;;7.72;3.50;;;;;;;6.81;68.79;97684.78;3881521;23;20020;-81
2020/12/12 02:19:58;;;;;;;7.00;3.75;;;;;;;6.82;68.56;97679.31;3879324;23;20023;-82
2020/12/12 02:21:32;;;;;;;11.13;4.18;;;;;;;6.79;68.99;97686.84;3881580;23;20024;-83
2020/12/12 02:23:03;;;;;;;10.32;4.40;;;;;;;6.71;69.51;97683.22;3875594;22;20031;-83
2020/12/12 02:24:36;;;;;;;7.57;4.32;;;;;;;6.71;69.46;97683.22;3881315;23;20042;-82
2020/12/12 02:26:07;;;;;;;6.90;3.47;;;;;;;6.69;69.43;97677.28;3882411;22;20032;-84
2020/12/12 02:27:39;;;;;;;7.32;3.92;;;;;;;6.65;69.78;97688.44;3891498;22;20076;-83
2020/12/12 02:29:11;;;;;;;7.18;4.03;;;;;;;6.66;69.78;97688.25;3885868;22;20030;-82
2020/12/12 02:30:43;;;;;;;8.13;4.57;;;;;;;6.63;69.87;97685.94;3887836;22;20012;-81
2020/12/12 02:32:14;;;;;;;8.10;4.25;;;;;;;6.60;70.18;97688.97;3889617;22;20073;-82
2020/12/12 02:33:46;;;;;;;6.70;3.45;;;;;;;6.58;69.95;97683.00;3863995;22;20016;-82
2020/12/12 02:35:18;;;;;;;8.82;4.30;;;;;;;6.64;69.99;97686.78;3884178;23;20032;-82
2020/12/12 02:36:50;;;;;;;7.82;4.72;;;;;;;6.61;70.14;97687.13;3879753;23;20047;-81
2020/12/12 02:38:23;;;;;;;9.77;5.55;;;;;;;6.55;70.26;97683.34;3884128;23;20061;-83
2020/12/12 02:39:54;;;;;;;7.60;3.95;;;;;;;6.56;70.20;97675.19;3878012;23;20022;-83
2020/12/12 02:41:27;;;;;;;7.60;3.97;;;;;;;6.63;70.17;97693.09;3883816;23;20457;-81
2020/12/12 02:43:01;;;;;;;8.27;4.25;;;;;;;6.63;70.03;97682.47;3880549;22;20079;-82
2020/12/12 02:44:32;;;;;;;8.10;3.90;;;;;;;6.60;70.28;97688.97;3885571;23;20024;-82
2020/12/12 02:46:04;;;;;;;9.80;4.82;;;;;;;6.59;70.17;97681.16;3877910;23;20028;-84
2020/12/12 02:47:35;;;;;;;7.35;3.80;;;;;;;6.63;70.24;97699.22;3882741;23;20039;-81
2020/12/12 02:49:07;;;;;;;7.25;3.83;;;;;;;6.63;70.23;97690.44;3875680;22;20017;-84
2020/12/12 02:50:38;;;;;;;6.40;3.20;;;;;;;6.64;70.29;97678.81;3880452;23;20035;-82
2020/12/12 02:52:10;;;;;;;7.95;3.80;;;;;;;6.68;70.11;97683.59;3879347;23;20020;-82
2020/12/12 02:53:42;;;;;;;7.35;3.47;;;;;;;6.68;70.13;97688.91;3886082;23;20179;-85
2020/12/12 02:55:21;;;;;;;8.88;4.38;;;;;;;6.62;69.72;97675.50;3881149;22;20040;-84
2020/12/12 02:56:52;;;;;;;8.35;4.30;;;;;;;6.61;70.13;97681.81;3888405;22;20008;-83
2020/12/12 02:58:23;;;;;;;7.20;4.18;;;;;;;6.56;70.17;97680.50;3885856;22;20014;-83
2020/12/12 02:59:55;;;;;;;9.35;4.97;;;;;;;6.50;70.11;97675.91;3890058;22;20012;-83
2020/12/12 03:01:27;;;;;;;7.22;3.75;;;;;;;6.48;70.35;97674.44;3871537;22;20058;-84
2020/12/12 03:03:01;;;;;;;8.88;4.47;;;;;;;6.51;70.15;97679.41;3888465;23;20039;-82
2020/12/12 03:04:32;;;;;;;8.93;4.22;;;;;;;6.49;70.37;97686.72;3886837;22;20019;-82
2020/12/12 03:06:03;;;;;;;9.52;4.85;;;;;;;6.44;70.66;97681.94;3891672;22;20032;-82
2020/12/12 03:07:36;;;;;;;11.98;5.70;;;;;;;6.36;70.63;97688.09;3887781;22;20031;-83
2020/12/12 03:09:08;;;;;;;12.02;4.78;;;;;;;6.42;70.73;97683.13;3892721;22;20060;-83
2020/12/12 03:10:40;;;;;;;9.10;5.10;;;;;;;6.35;70.90;97691.75;3888339;22;20104;-83
2020/12/12 03:12:13;;;;;;;7.70;4.65;;;;;;;6.35;71.05;97681.16;3892361;22;20019;-83
2020/12/12 03:13:44;;;;;;;9.38;5.40;;;;;;;6.32;71.28;97684.16;3888480;22;20064;-83
2020/12/12 03:15:16;;;;;;;9.15;4.22;;;;;;;6.33;71.24;97683.13;3893127;22;20023;-84
2020/12/12 03:16:48;;;;;;;7.93;4.43;;;;;;;6.37;71.40;97686.28;3886399;22;20019;-82
2020/12/12 03:18:22;;;;;;;14.07;6.07;;;;;;;6.33;71.67;97688.44;3892787;22;20008;-83
2020/12/12 03:20:03;;;;;;;8.70;4.55;;;;;;;6.30;71.84;97687.97;3877581;22;20031;-84
2020/12/12 03:21:56;;;;;;;8.68;4.60;;;;;;;6.29;72.05;97692.47;3873480;23;20009;-85
2020/12/12 03:23:42;;;;;;;8.00;4.05;;;;;;;6.28;72.22;97692.66;3769219;23;20073;-84
2020/12/12 03:25:47;;;;;;;8.85;4.88;;;;;;;6.19;73.03;97694.53;3800115;23;20013;-84
2020/12/12 03:27:37;;;;;;;7.03;3.78;;;;;;;6.20;72.63;97689.03;3873808;23;20035;-85
2020/12/12 03:29:29;;;;;;;8.13;3.78;;;;;;;6.23;72.36;97694.00;3843467;22;20076;-83
2020/12/12 03:31:26;;;;;;;9.55;4.78;;;;;;;6.18;72.72;97693.69;3817966;23;20019;-84
2020/12/12 03:33:04;;;;;;;9.52;5.30;;;;;;;6.15;72.85;97693.19;3887899;23;20028;-83
2020/12/12 03:34:53;;;;;;;8.30;4.35;;;;;;;6.16;72.86;97692.19;3824631;22;20172;-82
2020/12/12 03:36:31;;;;;;;8.25;4.30;;;;;;;6.15;72.62;97691.38;3866673;23;20330;-82
2020/12/12 03:38:17;;;;;;;8.25;3.58;;;;;;;6.21;72.38;97689.88;3825409;23;20498;-83
2020/12/12 03:39:58;;;;;;;7.93;4.28;;;;;;;6.17;72.49;97689.41;3833080;22;20012;-85
2020/12/12 03:41:34;;;;;;;;;;;;;;;6.14;72.93;97694.22;3852673;23;20098;-85
2020/12/12 03:43:26;;;;;;;;;;;;;;;;;;;;;
2020/12/12 03:45:09;;;;;;;9.50;5.60;;;;;;;6.17;72.48;97681.44;3857492;22;20017;-84
2020/12/12 03:46:51;;;;;;;9.05;4.93;;;;;;;6.21;72.65;97689.88;3806932;22;20020;-83
2020/12/12 03:48:32;;;;;;;9.15;4.93;;;;;;;6.20;72.42;97694.34;3855216;22;20018;-84
2020/12/12 03:50:27;;;;;;;10.10;5.30;;;;;;;6.17;72.59;97694.69;3790753;22;20008;-84
2020/12/12 03:52:17;;;;;;;10.15;5.15;;;;;;;6.19;72.60;97697.97;3805705;22;20020;-82
2020/12/12 03:54:06;;;;;;;10.75;5.60;;;;;;;6.24;72.39;97698.31;3874207;23;20024;-83
2020/12/12 03:55:54;;;;;;;8.32;4.43;;;;;;;6.24;72.35;97700.13;3793026;22;20097;-84
2020/12/12 03:57:32;;;;;;;9.60;5.40;;;;;;;6.27;72.12;97699.78;3871935;23;20011;-84
2020/12/12 03:59:14;;;;;;;9.65;5.50;;;;;;;6.24;72.17;97698.31;3806527;23;20024;-84
2020/12/12 04:04:34;;;;;;;8.82;4.35;;;;;;;6.38;71.54;97707.34;3834752;22;20079;-83
2020/12/12 04:06:14;;;;;;;9.13;4.43;;;;;;;6.37;71.48;97700.38;3882300;23;20072;-83
2020/12/12 04:08:02;;;;;;;7.57;4.30;;;;;;;6.38;71.18;97712.66;3771050;23;20467;-84
2020/12/12 04:09:56;;;;;;;9.70;5.20;;;;;;;6.35;70.94;97699.72;3863406;23;20091;-82
2020/12/12 04:11:49;;;;;;;9.02;4.82;;;;;;;6.42;71.08;97696.38;3812213;23;20020;-84
2020/12/12 04:13:33;;;;;;;8.68;4.43;;;;;;;6.44;71.24;97707.63;3827567;22;20012;-82
2020/12/12 04:15:13;;;;;;;8.77;4.30;;;;;;;6.48;71.06;97700.97;3857253;23;20021;-83
2020/12/12 04:16:50;;;;;;;8.98;4.82;;;;;;;6.44;70.99;97705.81;3804874;22;20396;-83
2020/12/12 04:18:29;;;;;;;9.85;4.88;;;;;;;6.50;70.88;97704.28;3871334;23;20027;-83
2020/12/12 04:20:16;;;;;;;9.50;5.05;;;;;;;6.47;71.01;97705.44;3815690;23;20047;-83
2020/12/12 04:21:57;;;;;;;7.35;4.10;;;;;;;6.47;70.71;97707.28;3848923;22;20028;-82
2020/12/12 04:23:43;;;;;;;7.50;3.95;;;;;;;6.53;70.59;97711.88;3863219;23;20147;-83
2020/12/12 04:25:21;;;;;;;8.63;4.78;;;;;;;6.49;70.34;97715.91;3819920;23;20020;-83
2020/12/12 04:27:16;;;;;;;9.65;4.60;;;;;;;6.39;70.61;97709.00;3870122;23;20016;-83
2020/12/12 04:29:01;;;;;;;9.82;5.05;;;;;;;6.43;70.46;97711.28;3838725;22;20016;-83
2020/12/12 04:31:09;;;;;;;8.57;4.25;;;;;;;6.39;70.58;97708.16;3873918;23;20098;-83
2020/12/12 04:33:04;;;;;;;8.10;4.30;;;;;;;6.45;70.42;97711.94;3836845;23;20078;-83
2020/12/12 04:36:29;;;;;;;9.75;4.93;;;;;;;6.49;70.28;97710.59;3878401;22;20011;-82
2020/12/12 04:38:03;;;;;;;7.75;4.50;;;;;;;6.46;70.10;97702.97;3888473;22;20084;-83
2020/12/12 04:39:36;;;;;;;8.60;5.20;;;;;;;6.50;70.24;97709.59;3891584;22;20008;-83
2020/12/12 04:41:07;;;;;;;10.35;5.47;;;;;;;6.47;70.19;97710.75;3875898;22;20055;-83
2020/12/12 04:42:43;;;;;;;8.65;4.85;;;;;;;6.49;69.89;97711.41;3892148;22;20063;-82
2020/12/12 04:44:15;;;;;;;9.75;4.50;;;;;;;6.52;70.08;97707.56;3888809;22;20023;-81
2020/12/12 04:45:48;;;;;;;10.27;5.65;;;;;;;6.53;69.95;97711.88;3888270;22;20004;-82
2020/12/12 04:47:20;;;;;;;9.82;4.85;;;;;;;6.55;70.04;97715.19;3891922;22;20039;-82
2020/12/12 04:48:52;;;;;;;8.50;4.80;;;;;;;6.59;69.84;97716.50;3885978;22;20035;-81
2020/12/12 04:50:29;;;;;;;9.27;5.15;;;;;;;6.53;69.87;97714.53;3891395;22;20019;-81
2020/12/12 04:52:03;;;;;;;9.10;4.90;;;;;;;6.52;69.93;97708.41;3887826;22;20012;-82
2020/12/12 04:53:34;;;;;;;8.70;4.78;;;;;;;6.56;69.80;97714.19;3888249;22;20008;-82
2020/12/12 04:55:06;;;;;;;8.65;5.15;;;;;;;6.57;69.86;97713.19;3888222;22;20008;-83
2020/12/12 04:56:38;;;;;;;9.57;5.05;;;;;;;6.58;69.89;97711.34;3891927;22;20022;-84
2020/12/12 04:58:15;;;;;;;8.30;4.05;;;;;;;6.58;69.48;97712.19;3888007;22;20005;-83
2020/12/12 04:59:46;;;;;;;8.13;4.38;;;;;;;6.62;69.58;97710.00;3891845;22;20102;-82
2020/12/12 05:01:17;;;;;;;7.80;4.00;;;;;;;6.63;69.35;97706.34;3886914;22;20096;-82
2020/12/12 05:02:50;;;;;;;7.00;3.72;;;;;;;6.71;69.34;97712.41;3891307;22;20017;-82
2020/12/12 05:04:38;;;;;;;8.90;4.90;;;;;;;6.62;69.06;97710.00;3887957;22;20009;-82
2020/12/12 05:06:21;;;;;;;8.77;4.72;;;;;;;6.67;69.01;97710.28;3891832;22;20016;-82
2020/12/12 05:07:57;;;;;;;8.45;4.28;;;;;;;6.68;69.07;97707.47;3888000;22;20023;-83
2020/12/12 05:09:43;;;;;;;8.18;4.32;;;;;;;6.65;68.91;97701.72;3890810;22;20012;-82
2020/12/12 05:11:18;;;;;;;12.10;5.47;;;;;;;6.65;68.69;97707.81;3888543;22;20015;-81
2020/12/12 05:12:51;;;;;;;8.98;4.40;;;;;;;6.67;68.90;97713.78;3885802;22;20038;-82
2020/12/12 05:14:24;;;;;;;7.35;3.92;;;;;;;6.61;68.74;97706.53;3891977;22;20067;-82
2020/12/12 05:15:57;;;;;;;10.35;4.95;;;;;;;6.61;69.11;97717.16;3887721;22;20026;-82
2020/12/12 05:17:32;;;;;;;9.32;5.57;;;;;;;6.65;68.64;97712.31;3892060;22;20023;-82
2020/12/12 05:19:04;;;;;;;7.75;4.32;;;;;;;6.63;68.80;97715.13;3887758;22;21347;-81
2020/12/12 05:20:37;;;;;;;8.27;4.30;;;;;;;6.69;68.93;97714.44;3890412;22;20014;-80
2020/12/12 05:22:10;;;;;;;6.30;3.10;;;;;;;6.72;68.74;97719.38;3852665;22;20064;-83
2020/12/12 05:23:42;;;;;;;8.68;4.45;;;;;;;6.70;68.68;97723.22;3871693;23;20039;-81
2020/12/12 05:25:13;;;;;;;9.00;5.18;;;;;;;6.65;69.06;97715.78;3872405;22;20020;-80
2020/12/12 05:26:46;;;;;;;8.38;4.63;;;;;;;6.67;69.09;97720.91;3890886;22;20186;-81
2020/12/12 05:28:20;;;;;;;7.93;3.70;;;;;;;6.70;68.84;97720.56;3887633;22;20027;-81
2020/12/12 05:29:52;;;;;;;7.90;3.60;;;;;;;6.75;68.76;97720.88;3890525;22;20012;-81
2020/12/12 05:31:28;;;;;;;7.97;4.38;;;;;;;6.71;68.80;97715.06;3886217;22;20034;-81
2020/12/12 05:32:59;;;;;;;8.07;4.35;;;;;;;6.71;68.64;97723.03;3890662;22;20016;-81
2020/12/12 05:34:31;;;;;;;9.18;4.30;;;;;;;6.73;68.54;97720.22;3886404;22;20004;-81
2020/12/12 05:36:03;;;;;;;8.60;3.80;;;;;;;6.73;68.61;97720.22;3891708;22;20008;-80
2020/12/12 05:37:38;;;;;;;7.72;4.18;;;;;;;6.79;68.26;97713.38;3886924;22;20090;-82
2020/12/12 05:39:11;;;;;;;8.10;3.85;;;;;;;6.82;68.36;97718.31;3891534;22;20019;-82
2020/12/12 05:40:45;;;;;;;9.00;4.13;;;;;;;6.80;68.15;97726.47;3887013;22;20010;-82
2020/12/12 05:42:20;;;;;;;7.60;3.92;;;;;;;6.80;68.12;97723.00;3891636;22;20012;-83
2020/12/12 05:43:51;;;;;;;7.35;3.88;;;;;;;6.78;68.41;97719.69;3888273;22;20025;-81
2020/12/12 05:45:23;;;;;;;8.93;4.85;;;;;;;6.86;68.27;97724.94;3891030;22;20008;-82
2020/12/12 05:47:00;;;;;;;7.22;3.33;;;;;;;6.87;67.77;97721.28;3886947;22;20051;-81
2020/12/12 05:48:32;;;;;;;7.88;3.58;;;;;;;6.90;68.14;97720.91;3891076;22;20012;-81
2020/12/12 05:50:04;;;;;;;8.43;4.43;;;;;;;6.91;67.98;97722.56;3886909;22;20022;-81
2020/12/12 05:51:36;;;;;;;7.60;4.18;;;;;;;6.90;67.93;97728.88;3890316;22;20042;-81
2020/12/12 05:53:10;;;;;;;8.27;4.68;;;;;;;6.83;68.01;97723.47;3888000;22;20027;-82
2020/12/12 05:54:41;;;;;;;8.45;4.88;;;;;;;6.82;68.08;97721.81;3890258;22;20064;-81
2020/12/12 05:56:14;;;;;;;9.90;5.00;;;;;;;6.83;68.11;97726.13;3888198;22;20067;-81
2020/12/12 05:57:45;;;;;;;7.20;3.50;;;;;;;6.85;68.17;97729.41;3887656;22;20028;-81
2020/12/12 05:59:17;;;;;;;9.30;5.07;;;;;;;6.89;67.98;97729.06;3890319;22;20012;-81
2020/12/12 06:00:49;;;;;;;10.95;5.50;;;;;;;6.79;67.98;97724.00;3887066;22;20012;-80
2020/12/12 06:02:24;;;;;;;8.43;4.70;;;;;;;6.79;68.03;97735.44;3890863;22;20008;-81
2020/12/12 06:04:02;;;;;;;6.30;3.72;;;;;;;6.79;67.92;97734.63;3888018;22;20016;-82
2020/12/12 06:05:34;;;;;;;6.82;3.75;;;;;;;6.79;67.83;97730.13;3890743;22;20057;-81
2020/12/12 06:07:06;;;;;;;9.57;4.47;;;;;;;6.80;67.81;97736.28;3888244;22;20009;-83
2020/12/12 06:08:39;;;;;;;7.88;4.70;;;;;;;6.71;67.99;97732.84;3890719;22;20012;-82
2020/12/12 06:10:13;;;;;;;7.45;3.95;;;;;;;6.80;67.91;97739.75;3886696;22;20024;-81
2020/12/12 06:11:46;;;;;;;8.45;4.15;;;;;;;6.84;67.96;97743.72;3891124;22;20043;-81
2020/12/12 06:13:19;;;;;;;8.95;4.70;;;;;;;6.88;67.81;97744.19;3886468;22;20020;-82
2020/12/12 06:14:54;;;;;;;9.05;4.05;;;;;;;6.90;67.73;97746.66;3890576;22;20008;-81
2020/12/12 06:16:34;;;;;;;7.18;4.30;;;;;;;6.86;67.58;97752.31;3886817;22;20008;-82
2020/12/12 06:18:38;;;;;;;7.60;4.33;;;;;;;6.78;67.29;97754.22;3891223;22;20012;-81
2020/12/12 06:20:14;;;;;;;7.88;3.97;;;;;;;6.80;67.71;97741.59;3869581;22;20035;-81
2020/12/12 06:21:50;;;;;;;9.07;4.53;;;;;;;6.83;67.49;97754.50;3887684;22;20011;-80
2020/12/12 06:23:22;;;;;;;5.68;3.15;;;;;;;6.83;67.68;97752.69;3891071;22;20420;-81
2020/12/12 06:25:03;;;;;;;7.43;3.63;;;;;;;6.87;67.48;97755.81;3888552;22;20062;-83
2020/12/12 06:26:42;;;;;;;;;;;;;;;6.77;68.31;97757.88;3890628;22;20004;-81
2020/12/12 06:28:19;;;;;;;7.85;4.18;;;;;;;6.78;67.71;97751.56;3888316;22;19903;-81
2020/12/12 06:29:51;;;;;;;7.20;4.28;;;;;;;6.88;67.69;97760.13;3890814;22;20024;-81
2020/12/12 06:31:22;;;;;;;8.43;4.40;;;;;;;6.86;67.61;97760.28;3888202;22;20012;-82
2020/12/12 06:33:00;;;;;;;7.75;3.60;;;;;;;6.89;67.32;97760.94;3891387;22;20032;-80
2020/12/12 06:34:40;;;;;;;7.60;3.70;;;;;;;6.90;67.27;97765.25;3891331;22;20004;-80
2020/12/12 06:36:22;;;;;;;8.73;3.97;;;;;;;6.93;67.41;97773.69;3892195;22;20059;-81
2020/12/12 06:37:54;;;;;;;10.63;3.85;;;;;;;6.95;67.44;97777.00;3888442;22;20054;-82
2020/12/12 06:39:26;;;;;;;7.40;3.72;;;;;;;6.94;67.52;97770.03;3890856;22;20012;-81
2020/12/12 06:41:00;;;;;;;8.13;4.00;;;;;;;6.98;67.44;97766.03;3888085;22;20016;-81
2020/12/12 06:42:37;;;;;;;7.43;3.70;;;;;;;7.00;67.23;97771.97;3892340;22;20052;-81
2020/12/12 06:44:08;;;;;;;7.78;4.05;;;;;;;7.00;67.31;97768.50;3887945;22;20012;-82
2020/12/12 06:45:48;;;;;;;8.13;3.67;;;;;;;7.03;67.19;97768.97;3891936;22;20009;-82
2020/12/12 06:47:34;;;;;;;7.32;4.50;;;;;;;7.00;66.80;97776.47;3889576;22;20024;-81
2020/12/12 06:49:10;;;;;;;9.18;4.68;;;;;;;6.99;67.30;97770.31;3887428;22;20000;-81
2020/12/12 06:50:43;;;;;;;9.10;4.53;;;;;;;7.03;67.08;97768.97;3891917;22;20073;-81
2020/12/12 06:52:29;;;;;;;7.38;3.28;;;;;;;7.03;67.20;97773.47;3888664;22;20046;-81
2020/12/12 06:54:08;;;;;;;7.13;3.58;;;;;;;7.08;67.11;97780.91;3892673;22;20036;-83
2020/12/12 06:55:39;;;;;;;9.77;4.07;;;;;;;7.04;67.40;97775.09;3883213;22;20016;-82
2020/12/12 06:57:31;;;;;;;8.07;4.82;;;;;;;7.05;66.98;97783.91;3893089;22;20008;-82
2020/12/12 06:59:29;;;;;;;8.70;4.30;;;;;;;7.04;67.23;97772.44;3884788;22;20028;-82
2020/12/12 07:01:20;;;;;;;7.85;4.28;;;;;;;7.05;67.61;97781.25;3874559;22;20012;-81
2020/12/12 07:02:54;;;;;;;7.30;3.45;;;;;;;7.03;67.46;97779.59;3891875;22;20003;-82
2020/12/12 07:04:29;;;;;;;7.75;3.70;;;;;;;7.05;67.31;97783.91;3886811;22;20004;-83
2020/12/12 07:06:06;;;;;;;8.57;4.90;;;;;;;7.03;67.39;97779.59;3892588;22;20067;-81
2020/12/12 07:07:38;;;;;;;7.15;3.80;;;;;;;7.08;67.58;97781.72;3887695;22;20008;-81
2020/12/12 07:09:10;;;;;;;8.68;3.92;;;;;;;7.03;67.52;97774.28;3892149;22;20051;-82
2020/12/12 07:10:43;;;;;;;7.68;3.55;;;;;;;7.05;67.38;97781.25;3887220;22;20008;-83
2020/12/12 07:12:17;;;;;;;10.05;4.55;;;;;;;7.09;67.27;97791.34;3890440;22;20072;-82
2020/12/12 07:13:48;;;;;;;10.18;4.22;;;;;;;7.06;67.46;97785.56;3888375;22;20024;-82
2020/12/12 07:15:23;;;;;;;6.00;3.25;;;;;;;7.05;67.27;97781.25;3891754;22;20068;-81
2020/12/12 07:16:57;;;;;;;8.50;4.72;;;;;;;7.09;67.22;97791.34;3875045;22;20004;-80
2020/12/12 07:18:29;;;;;;;10.02;5.15;;;;;;;7.05;67.40;97791.88;3892377;22;20028;-80
2020/12/12 07:20:02;;;;;;;7.70;3.70;;;;;;;7.07;67.33;97789.88;3887752;22;20012;-83
2020/12/12 07:21:38;;;;;;;6.60;3.60;;;;;;;7.09;67.33;97790.50;3892221;22;20008;-81
2020/12/12 07:23:09;;;;;;;8.63;3.42;;;;;;;7.12;67.35;97804.28;3887924;22;20714;-80
2020/12/12 07:24:59;;;;;;;7.28;4.07;;;;;;;7.09;67.15;97799.31;3891839;22;20016;-81
2020/12/12 07:26:31;;;;;;;7.30;3.90;;;;;;;7.07;67.43;97803.16;3887342;22;20004;-82
2020/12/12 07:28:23;;;;;;;8.55;4.93;;;;;;;7.10;67.00;97800.13;3887085;22;20056;-81
2020/12/12 07:30:08;;;;;;;8.52;4.30;;;;;;;7.09;67.20;97798.47;3890468;22;20008;-81
2020/12/12 07:31:46;;;;;;;7.30;3.95;;;;;;;7.14;67.09;97810.22;3888605;22;20058;-82
2020/12/12 07:33:26;;;;;;;9.00;4.32;;;;;;;7.11;67.07;97812.41;3890908;22;20024;-81
2020/12/12 07:35:00;;;;;;;8.77;4.80;;;;;;;7.10;67.48;97816.06;3888833;22;20089;-80
2020/12/12 07:36:32;;;;;;;8.05;4.50;;;;;;;7.14;67.40;97822.69;3893204;22;20016;-81
2020/12/12 07:38:05;;;;;;;9.85;4.82;;;;;;;7.09;67.35;97823.22;3888435;22;20012;-82
2020/12/12 07:39:39;;;;;;;8.48;4.40;;;;;;;7.09;67.33;97827.69;3891466;22;20032;-80
2020/12/12 07:41:14;;;;;;;9.52;5.30;;;;;;;7.06;67.52;97828.06;3889116;22;20020;-81